createdAt,value
2024-04-30T00:01:26.939Z,96051.94
2024-04-30T00:03:53.715Z,96054.31
2024-04-30T00:06:20.399Z,96046.44
2024-04-30T00:08:48.056Z,96038.78
2024-04-30T00:11:14.740Z,96038.00
2024-04-30T00:13:41.462Z,96045.88
2024-04-30T00:16:08.108Z,96050.34
2024-04-30T00:18:34.886Z,96049.06
2024-04-30T00:21:01.686Z,96043.25
2024-04-30T00:23:28.338Z,96049.56
2024-04-30T00:25:54.929Z,96051.16
2024-04-30T00:28:21.670Z,96045.91
2024-04-30T00:30:48.438Z,96043.78
2024-04-30T00:33:15.187Z,96045.34
2024-04-30T00:35:41.789Z,96035.38
2024-04-30T00:38:08.426Z,96046.41
2024-04-30T00:40:35.083Z,96041.13
2024-04-30T00:43:01.836Z,96029.28
2024-04-30T00:45:28.482Z,96023.75
2024-04-30T00:47:55.178Z,96016.66
2024-04-30T00:50:22.766Z,96025.09
2024-04-30T00:52:49.814Z,96022.72
2024-04-30T00:55:16.557Z,96022.72
2024-04-30T00:57:43.540Z,96024.81
2024-04-30T01:00:10.817Z,96016.66
2024-04-30T01:02:37.530Z,96021.16
2024-04-30T01:05:04.710Z,96020.59
2024-04-30T01:07:31.592Z,96021.66
2024-04-30T01:09:58.506Z,96020.88
2024-04-30T01:12:25.206Z,96025.38
2024-04-30T01:14:51.848Z,96020.88
2024-04-30T01:17:18.503Z,96024.56
2024-04-30T01:19:45.127Z,96021.41
2024-04-30T01:22:11.882Z,96024.81
2024-04-30T01:24:38.497Z,96020.09
2024-04-30T01:27:05.250Z,96023.00
2024-04-30T01:29:31.935Z,96022.19
2024-04-30T01:31:58.611Z,96018.25
2024-04-30T01:34:25.283Z,96024.22
2024-04-30T01:36:51.928Z,96021.00
2024-04-30T01:39:18.548Z,96034.09
2024-04-30T01:41:45.149Z,96023.50
2024-04-30T01:44:11.823Z,96020.78
2024-04-30T01:46:38.491Z,96022.28
2024-04-30T01:49:05.173Z,96027.78
2024-04-30T01:51:31.887Z,96022.25
2024-04-30T01:53:58.503Z,96026.44
2024-04-30T01:56:25.203Z,96031.69
2024-04-30T01:58:51.858Z,96029.59
2024-04-30T02:01:18.686Z,96025.69
2024-04-30T02:03:45.565Z,96026.53
2024-04-30T02:06:12.563Z,96025.03
2024-04-30T02:08:39.171Z,96033.22
2024-04-30T02:11:05.889Z,96025.06
2024-04-30T02:13:32.688Z,96023.50
2024-04-30T02:15:59.417Z,96029.28
2024-04-30T02:18:26.219Z,96031.91
2024-04-30T02:20:52.925Z,96026.66
2024-04-30T02:23:19.588Z,96019.28
2024-04-30T02:25:46.220Z,96025.03
2024-04-30T02:28:12.939Z,96020.81
2024-04-30T02:30:58.290Z,96024.75
2024-04-30T02:33:43.705Z,96019.50
2024-04-30T02:36:11.135Z,96018.00
2024-04-30T02:38:37.800Z,96020.88
2024-04-30T02:41:05.572Z,96011.63
2024-04-30T02:43:32.256Z,96009.75
2024-04-30T02:45:58.934Z,96003.97
2024-04-30T02:48:26.763Z,96010.56
2024-04-30T02:50:53.459Z,96005.56
2024-04-30T02:53:20.139Z,96001.91
2024-04-30T02:55:46.856Z,95994.59
2024-04-30T02:58:13.599Z,96003.75
2024-04-30T03:00:40.288Z,95991.94
2024-04-30T03:03:06.937Z,95981.41
2024-04-30T03:05:33.569Z,95984.53
2024-04-30T03:08:00.183Z,95984.47
2024-04-30T03:10:26.840Z,95981.31
2024-04-30T03:12:53.689Z,95968.72
2024-04-30T03:15:20.705Z,95960.84
2024-04-30T03:17:48.084Z,95962.94
2024-04-30T03:20:15.666Z,95951.91
2024-04-30T03:22:42.380Z,95952.94
2024-04-30T03:25:09.045Z,95955.50
2024-04-30T03:27:35.702Z,95958.34
2024-04-30T03:30:02.521Z,95949.09
2024-04-30T03:32:29.185Z,95951.22
2024-04-30T03:34:55.874Z,95947.63
2024-04-30T03:37:22.498Z,95942.91
2024-04-30T03:39:49.141Z,95944.47
2024-04-30T03:42:15.796Z,95946.56
2024-04-30T03:44:42.416Z,95945.50
2024-04-30T03:47:09.665Z,95940.97
2024-04-30T03:49:37.982Z,95932.91
2024-04-30T03:52:05.874Z,95926.56
2024-04-30T03:54:32.629Z,95932.13
2024-04-30T03:56:59.239Z,95921.94
2024-04-30T03:59:26.020Z,95919.22
2024-04-30T04:01:52.725Z,95911.91
2024-04-30T04:04:19.445Z,95910.28
2024-04-30T04:06:46.173Z,95914.16
2024-04-30T04:09:13.109Z,95917.53
2024-04-30T04:11:58.399Z,95910.81
2024-04-30T04:14:47.594Z,95910.25
2024-04-30T04:17:15.499Z,95914.44
2024-04-30T04:19:42.622Z,95913.16
2024-04-30T04:22:09.566Z,95921.28
2024-04-30T04:24:36.556Z,95913.94
2024-04-30T04:27:04.641Z,95901.06
2024-04-30T04:29:32.196Z,95900.22
2024-04-30T04:32:00.696Z,95887.38
2024-04-30T04:34:27.776Z,95888.25
2024-04-30T04:36:54.466Z,95891.66
2024-04-30T04:39:21.937Z,95898.94
2024-04-30T04:41:48.544Z,95895.72
2024-04-30T04:44:15.262Z,95878.47
2024-04-30T04:46:41.966Z,95877.75
2024-04-30T04:49:08.752Z,95890.53
2024-04-30T04:51:35.453Z,95891.50
2024-04-30T04:54:02.234Z,95883.91
2024-04-30T04:56:28.893Z,95892.84
2024-04-30T04:58:55.969Z,95894.88
2024-04-30T05:01:22.842Z,95889.78
2024-04-30T05:03:49.749Z,95892.03
2024-04-30T05:06:16.440Z,95892.47
2024-04-30T05:08:45.946Z,95895.34
2024-04-30T05:11:13.751Z,95897.44
2024-04-30T05:13:40.550Z,95897.00
2024-04-30T05:16:09.323Z,95902.22
2024-04-30T05:18:37.232Z,95891.66
2024-04-30T05:21:05.016Z,95898.22
2024-04-30T05:23:31.615Z,95891.19
2024-04-30T05:25:58.310Z,95884.88
2024-04-30T05:28:25.054Z,95892.22
2024-04-30T05:30:51.701Z,95904.28
2024-04-30T05:33:18.340Z,95887.31
2024-04-30T05:35:45.024Z,95873.75
2024-04-30T05:38:11.701Z,95871.91
2024-04-30T05:40:38.386Z,95862.22
2024-04-30T05:43:09.414Z,95877.38
2024-04-30T05:45:36.072Z,95869.88
2024-04-30T05:48:02.764Z,95865.75
2024-04-30T05:50:29.480Z,95866.81
2024-04-30T05:52:56.119Z,95872.38
2024-04-30T05:55:23.139Z,95867.13
2024-04-30T05:57:49.876Z,95863.75
2024-04-30T06:00:16.674Z,95856.16
2024-04-30T06:02:43.384Z,95856.81
2024-04-30T06:05:10.540Z,95860.72
2024-04-30T06:07:37.452Z,95870.84
2024-04-30T06:10:04.549Z,95871.44
2024-04-30T06:12:31.252Z,95869.81
2024-04-30T06:14:57.928Z,95859.31
2024-04-30T06:17:24.571Z,95865.19
2024-04-30T06:19:51.278Z,95858.34
2024-04-30T06:22:17.949Z,95855.44
2024-04-30T06:24:44.540Z,95858.59
2024-04-30T06:27:11.145Z,95853.59
2024-04-30T06:29:38.996Z,95850.91
2024-04-30T06:32:06.772Z,95849.88
2024-04-30T06:34:33.839Z,95847.25
2024-04-30T06:37:00.702Z,95843.56
2024-04-30T06:39:27.357Z,95844.63
2024-04-30T06:41:54.026Z,95845.13
2024-04-30T06:44:21.677Z,95841.41
2024-04-30T06:46:48.369Z,95845.00
2024-04-30T06:49:15.073Z,95850.72
2024-04-30T06:51:41.789Z,95849.66
2024-04-30T06:54:08.533Z,95848.53
2024-04-30T06:56:35.347Z,95847.38
2024-04-30T06:59:01.951Z,95839.63
2024-04-30T07:01:29.096Z,95835.38
2024-04-30T07:03:55.869Z,95833.69
2024-04-30T07:06:22.554Z,95838.28
2024-04-30T07:08:49.208Z,95849.78
2024-04-30T07:11:15.867Z,95843.69
2024-04-30T07:13:42.584Z,95836.97
2024-04-30T07:16:09.347Z,95842.97
2024-04-30T07:18:36.513Z,95845.00
2024-04-30T07:21:03.549Z,95851.22
2024-04-30T07:23:30.839Z,95856.31
2024-04-30T07:25:57.528Z,95852.41
2024-04-30T07:28:25.264Z,95841.19
2024-04-30T07:30:52.070Z,95836.03
2024-04-30T07:33:18.827Z,95831.41
2024-04-30T07:35:45.520Z,95834.25
2024-04-30T07:38:12.133Z,95830.19
2024-04-30T07:40:38.845Z,95830.72
2024-04-30T07:43:05.624Z,95836.66
2024-04-30T07:45:32.278Z,95836.28
2024-04-30T07:47:59.082Z,95832.91
2024-04-30T07:50:25.799Z,95840.38
2024-04-30T07:52:52.519Z,95840.78
2024-04-30T07:55:19.433Z,95840.97
2024-04-30T07:57:46.124Z,95850.94
2024-04-30T08:00:13.089Z,95847.28
2024-04-30T08:02:39.832Z,95841.50
2024-04-30T08:05:06.677Z,95851.16
2024-04-30T08:07:33.377Z,95850.97
2024-04-30T08:10:00.033Z,95855.63
2024-04-30T08:12:26.728Z,95850.22
2024-04-30T08:14:53.352Z,95840.63
2024-04-30T08:17:20.136Z,95845.34
2024-04-30T08:19:46.972Z,95853.72
2024-04-30T08:22:13.692Z,95849.56
2024-04-30T08:24:40.339Z,95841.88
2024-04-30T08:27:06.987Z,95848.88
2024-04-30T08:29:33.673Z,95852.19
2024-04-30T08:32:00.728Z,95852.97
2024-04-30T08:34:27.421Z,95853.47
2024-04-30T08:36:54.093Z,95847.38
2024-04-30T08:39:20.740Z,95846.59
2024-04-30T08:41:49.314Z,95847.84
2024-04-30T08:44:17.626Z,95847.09
2024-04-30T08:46:46.700Z,95843.81
2024-04-30T08:49:20.432Z,95850.81
2024-04-30T08:51:57.129Z,95842.81
2024-04-30T08:54:26.641Z,95841.94
2024-04-30T08:56:53.695Z,95846.75
2024-04-30T08:59:20.481Z,95841.66
2024-04-30T09:01:52.404Z,95842.13
2024-04-30T09:04:19.390Z,95848.53
2024-04-30T09:06:46.293Z,95849.72
2024-04-30T09:09:16.812Z,95845.22
2024-04-30T09:11:44.294Z,95835.88
2024-04-30T09:14:11.035Z,95827.69
2024-04-30T09:16:48.465Z,95834.72
2024-04-30T09:19:25.317Z,95832.97
2024-04-30T09:22:05.346Z,95826.56
2024-04-30T09:24:32.758Z,95827.59
2024-04-30T09:26:59.525Z,95830.41
2024-04-30T09:29:37.905Z,95840.63
2024-04-30T09:32:05.667Z,95841.44
2024-04-30T09:34:42.662Z,95843.28
2024-04-30T09:37:19.212Z,95840.47
2024-04-30T09:39:54.195Z,95837.28
2024-04-30T09:42:21.761Z,95829.00
2024-04-30T09:44:51.123Z,95824.09
2024-04-30T09:47:20.217Z,95824.88
2024-04-30T09:49:48.702Z,95819.41
2024-04-30T09:52:19.152Z,95805.25
2024-04-30T09:54:47.046Z,95797.00
2024-04-30T09:57:14.741Z,95789.03
2024-04-30T09:59:42.084Z,95786.53
2024-04-30T10:02:12.254Z,95791.59
2024-04-30T10:04:40.294Z,95782.13
2024-04-30T10:07:07.732Z,95781.03
2024-04-30T10:09:34.413Z,95782.44
2024-04-30T10:12:01.050Z,95774.81
2024-04-30T10:14:31.721Z,95769.78
2024-04-30T10:17:02.452Z,95774.13
2024-04-30T10:19:29.355Z,95771.44
2024-04-30T10:21:56.102Z,95758.34
2024-04-30T10:24:23.470Z,95763.38
2024-04-30T10:26:51.375Z,95739.69
2024-04-30T10:29:18.796Z,95731.78
2024-04-30T10:31:49.268Z,95730.63
2024-04-30T10:34:16.392Z,95727.66
2024-04-30T10:36:47.963Z,95723.91
2024-04-30T10:39:25.389Z,95731.94
2024-04-30T10:41:52.227Z,95722.97
2024-04-30T10:44:18.928Z,95720.19
2024-04-30T10:46:45.653Z,95720.38
2024-04-30T10:49:13.343Z,95712.63
2024-04-30T10:51:40.025Z,95715.47
2024-04-30T10:54:06.862Z,95712.75
2024-04-30T10:56:33.520Z,95719.97
2024-04-30T10:59:01.487Z,95721.22
2024-04-30T11:01:31.759Z,95704.81
2024-04-30T11:04:09.751Z,95716.19
2024-04-30T11:06:43.358Z,95713.16
2024-04-30T11:09:12.260Z,95712.84
2024-04-30T11:11:48.869Z,95713.34
2024-04-30T11:14:16.775Z,95717.25
2024-04-30T11:16:44.184Z,95706.69
2024-04-30T11:19:13.169Z,95714.13
2024-04-30T11:21:40.236Z,95709.53
2024-04-30T11:24:08.118Z,95713.88
2024-04-30T11:26:34.765Z,95712.38
2024-04-30T11:29:15.668Z,95701.59
2024-04-30T11:31:48.083Z,95703.72
2024-04-30T11:34:14.757Z,95700.41
2024-04-30T11:36:41.514Z,95700.94
2024-04-30T11:39:09.866Z,95708.34
2024-04-30T11:41:39.537Z,95705.59
2024-04-30T11:44:06.256Z,95712.63
2024-04-30T11:46:32.979Z,95710.41
2024-04-30T11:48:59.616Z,95711.88
2024-04-30T11:51:26.292Z,95712.94
2024-04-30T11:53:52.943Z,95710.38
2024-04-30T11:56:19.636Z,95701.72
2024-04-30T11:58:46.366Z,95700.38
2024-04-30T12:01:13.126Z,95693.94
2024-04-30T12:03:39.855Z,95692.63
2024-04-30T12:06:06.624Z,95696.25
2024-04-30T12:08:35.886Z,95685.34
2024-04-30T12:11:02.569Z,95688.41
2024-04-30T12:13:29.292Z,95681.00
2024-04-30T12:15:56.485Z,95687.50
2024-04-30T12:18:23.202Z,95680.03
2024-04-30T12:20:49.919Z,95685.47
2024-04-30T12:23:18.442Z,95676.38
2024-04-30T12:25:45.153Z,95669.81
2024-04-30T12:28:11.895Z,95665.31
2024-04-30T12:30:38.520Z,95670.88
2024-04-30T12:33:05.331Z,95667.28
2024-04-30T12:35:33.659Z,95665.06
2024-04-30T12:38:00.754Z,95653.41
2024-04-30T12:40:27.513Z,95661.63
2024-04-30T12:42:54.199Z,95654.25
2024-04-30T12:45:20.808Z,95649.50
2024-04-30T12:47:47.551Z,95650.00
2024-04-30T12:50:15.256Z,95644.75
2024-04-30T12:52:42.003Z,95648.00
2024-04-30T12:55:08.645Z,95637.25
2024-04-30T12:57:35.325Z,95647.94
2024-04-30T13:00:01.979Z,95640.81
2024-04-30T13:02:28.721Z,95636.84
2024-04-30T13:04:55.713Z,95631.97
2024-04-30T13:07:22.453Z,95621.91
2024-04-30T13:09:49.142Z,95615.41
2024-04-30T13:12:15.793Z,95618.94
2024-04-30T13:14:42.418Z,95619.28
2024-04-30T13:17:09.056Z,95618.34
2024-04-30T13:19:36.150Z,95612.69
2024-04-30T13:22:02.974Z,95604.97
2024-04-30T13:24:29.582Z,95605.81
2024-04-30T13:26:56.208Z,95599.94
2024-04-30T13:29:22.974Z,95602.34
2024-04-30T13:31:49.619Z,95601.69
2024-04-30T13:34:29.740Z,95593.75
2024-04-30T13:36:56.371Z,95584.78
2024-04-30T13:39:27.050Z,95585.91
2024-04-30T13:41:54.060Z,95581.13
2024-04-30T13:44:20.677Z,95575.59
2024-04-30T13:46:47.653Z,95573.84
2024-04-30T13:49:14.455Z,95568.69
2024-04-30T13:51:41.112Z,95568.78
2024-04-30T13:54:09.461Z,95567.56
2024-04-30T13:56:36.105Z,95568.00
2024-04-30T13:59:06.454Z,95571.97
2024-04-30T14:01:35.332Z,95565.81
2024-04-30T14:04:02.231Z,95557.44
2024-04-30T14:06:28.973Z,95552.34
2024-04-30T14:08:55.595Z,95547.22
2024-04-30T14:11:22.369Z,95557.75
2024-04-30T14:13:49.076Z,95551.97
2024-04-30T14:16:15.848Z,95554.00
2024-04-30T14:18:42.575Z,95549.00
2024-04-30T14:21:11.682Z,95546.94
2024-04-30T14:23:38.316Z,95546.53
2024-04-30T14:26:08.169Z,95542.50
2024-04-30T14:28:35.767Z,95538.97
2024-04-30T14:31:02.487Z,95548.69
2024-04-30T14:33:29.213Z,95549.25
2024-04-30T14:36:14.736Z,95538.84
2024-04-30T14:38:41.427Z,95540.59
2024-04-30T14:41:14.754Z,95539.13
2024-04-30T14:43:41.879Z,95538.97
2024-04-30T14:46:08.774Z,95538.25
2024-04-30T14:48:35.497Z,95533.38
2024-04-30T14:51:02.427Z,95529.50
2024-04-30T14:53:29.074Z,95534.88
2024-04-30T14:55:55.693Z,95532.25
2024-04-30T14:58:22.628Z,95529.56
2024-04-30T15:00:49.320Z,95528.38
2024-04-30T15:03:18.765Z,95529.53
2024-04-30T15:05:45.652Z,95516.66
2024-04-30T15:08:12.409Z,95519.19
2024-04-30T15:10:39.135Z,95515.63
2024-04-30T15:13:06.484Z,95513.41
2024-04-30T15:15:33.117Z,95511.13
2024-04-30T15:17:59.825Z,95514.44
2024-04-30T15:20:26.563Z,95508.78
2024-04-30T15:22:53.257Z,95513.38
2024-04-30T15:25:20.013Z,95511.50
2024-04-30T15:27:46.839Z,95509.75
2024-04-30T15:30:13.841Z,95504.03
2024-04-30T15:32:42.774Z,95502.38
2024-04-30T15:35:09.433Z,95497.53
2024-04-30T15:37:36.307Z,95510.44
2024-04-30T15:40:03.021Z,95500.72
2024-04-30T15:42:29.677Z,95494.94
2024-04-30T15:44:56.297Z,95492.31
2024-04-30T15:47:22.970Z,95493.72
2024-04-30T15:49:49.731Z,95487.44
2024-04-30T15:52:16.416Z,95480.81
2024-04-30T15:54:43.174Z,95480.38
2024-04-30T15:57:11.838Z,95479.94
2024-04-30T15:59:39.346Z,95465.50
2024-04-30T16:02:06.048Z,95471.59
2024-04-30T16:04:32.920Z,95465.09
2024-04-30T16:06:59.698Z,95468.53
2024-04-30T16:09:26.663Z,95471.94
2024-04-30T16:11:53.593Z,95469.78
2024-04-30T16:14:20.306Z,95467.34
2024-04-30T16:16:48.122Z,95462.16
2024-04-30T16:19:16.735Z,95466.91
2024-04-30T16:21:44.095Z,95465.97
2024-04-30T16:24:11.508Z,95463.72
2024-04-30T16:26:41.306Z,95460.16
2024-04-30T16:29:07.946Z,95448.56
2024-04-30T16:31:34.604Z,95452.81
2024-04-30T16:34:01.267Z,95440.16
2024-04-30T16:36:28.117Z,95437.28
2024-04-30T16:38:54.817Z,95438.69
2024-04-30T16:41:21.624Z,95438.97
2024-04-30T16:43:48.310Z,95434.41
2024-04-30T16:46:15.222Z,95423.06
2024-04-30T16:48:42.429Z,95415.56
2024-04-30T16:51:13.629Z,95414.38
2024-04-30T16:53:40.478Z,95408.78
2024-04-30T16:56:07.461Z,95406.94
2024-04-30T16:58:34.945Z,95413.78
2024-04-30T17:01:01.655Z,95415.94
2024-04-30T17:03:28.585Z,95409.22
2024-04-30T17:05:55.380Z,95407.44
2024-04-30T17:08:22.246Z,95406.38
2024-04-30T17:10:48.870Z,95411.03
2024-04-30T17:13:15.568Z,95405.09
2024-04-30T17:15:42.200Z,95412.34
2024-04-30T17:18:08.990Z,95405.97
2024-04-30T17:20:35.746Z,95405.59
2024-04-30T17:23:02.553Z,95410.09
2024-04-30T17:25:29.240Z,95403.22
2024-04-30T17:27:56.006Z,95400.38
2024-04-30T17:30:22.751Z,95393.69
2024-04-30T17:32:49.442Z,95388.41
2024-04-30T17:35:16.144Z,95393.88
2024-04-30T17:37:42.781Z,95394.47
2024-04-30T17:40:10.185Z,95385.00
2024-04-30T17:42:37.822Z,95399.19
2024-04-30T17:45:04.937Z,95396.63
2024-04-30T17:47:31.903Z,95398.19
2024-04-30T17:49:58.660Z,95400.31
2024-04-30T17:52:25.308Z,95400.44
2024-04-30T17:54:52.025Z,95406.72
2024-04-30T17:57:18.750Z,95408.94
2024-04-30T17:59:45.431Z,95408.63
2024-04-30T18:02:12.006Z,95397.78
2024-04-30T18:04:38.727Z,95399.44
2024-04-30T18:07:05.454Z,95392.75
2024-04-30T18:09:32.144Z,95395.41
2024-04-30T18:11:58.841Z,95401.84
2024-04-30T18:14:25.543Z,95396.31
2024-04-30T18:16:52.536Z,95397.31
2024-04-30T18:19:19.251Z,95398.28
2024-04-30T18:21:46.026Z,95391.19
2024-04-30T18:24:12.744Z,95391.16
2024-04-30T18:26:40.425Z,95398.72
2024-04-30T18:29:07.056Z,95400.81
2024-04-30T18:31:33.752Z,95391.59
2024-04-30T18:34:00.881Z,95397.88
2024-04-30T18:36:27.927Z,95385.91
2024-04-30T18:38:54.949Z,95384.53
2024-04-30T18:41:28.281Z,95386.69
2024-04-30T18:43:58.003Z,95393.06
2024-04-30T18:46:24.713Z,95388.78
2024-04-30T18:48:52.041Z,95394.22
2024-04-30T18:51:19.982Z,95388.56
2024-04-30T18:53:46.654Z,95376.69
2024-04-30T18:56:19.554Z,95395.41
2024-04-30T18:58:47.072Z,95390.78
2024-04-30T19:01:14.811Z,95386.78
2024-04-30T19:03:41.965Z,95393.81
2024-04-30T19:06:10.430Z,95395.63
2024-04-30T19:08:37.310Z,95386.16
2024-04-30T19:11:05.472Z,95384.59
2024-04-30T19:13:32.923Z,95374.91
2024-04-30T19:16:06.689Z,95371.75
2024-04-30T19:18:33.926Z,95373.25
2024-04-30T19:21:04.366Z,95370.91
2024-04-30T19:23:32.530Z,95368.25
2024-04-30T19:26:00.198Z,95377.34
2024-04-30T19:28:27.505Z,95378.88
2024-04-30T19:30:54.313Z,95383.09
2024-04-30T19:33:21.293Z,95387.31
2024-04-30T19:35:48.014Z,95382.00
2024-04-30T19:38:15.758Z,95388.63
2024-04-30T19:40:43.699Z,95391.31
2024-04-30T19:43:13.069Z,95392.47
2024-04-30T19:45:40.880Z,95402.19
2024-04-30T19:48:08.908Z,95400.31
2024-04-30T19:50:36.348Z,95392.81
2024-04-30T19:53:02.923Z,95393.19
2024-04-30T19:55:29.586Z,95394.28
2024-04-30T19:57:56.218Z,95398.56
2024-04-30T20:00:22.889Z,95392.00
2024-04-30T20:02:51.471Z,95399.88
2024-04-30T20:05:18.100Z,95395.66
2024-04-30T20:07:44.723Z,95390.50
2024-04-30T20:10:11.332Z,95396.28
2024-04-30T20:12:37.978Z,95392.38
2024-04-30T20:15:04.784Z,95379.41
2024-04-30T20:17:31.421Z,95374.72
2024-04-30T20:19:58.139Z,95373.00
2024-04-30T20:22:25.268Z,95365.81
2024-04-30T20:24:51.998Z,95376.25
2024-04-30T20:27:18.821Z,95371.38
2024-04-30T20:29:45.495Z,95371.84
2024-04-30T20:32:13.178Z,95367.16
2024-04-30T20:34:39.813Z,95363.44
2024-04-30T20:37:06.573Z,95360.75
2024-04-30T20:39:35.909Z,95351.25
2024-04-30T20:42:02.648Z,95354.88
2024-04-30T20:44:29.347Z,95358.34
2024-04-30T20:46:55.977Z,95355.69
2024-04-30T20:49:22.644Z,95352.72
2024-04-30T20:51:49.361Z,95351.50
2024-04-30T20:54:15.991Z,95356.63
2024-04-30T20:56:42.937Z,95346.66
2024-04-30T20:59:10.706Z,95359.28
2024-04-30T21:01:37.589Z,95358.38
2024-04-30T21:04:04.592Z,95349.63
2024-04-30T21:06:31.480Z,95352.75
2024-04-30T21:08:58.122Z,95346.97
2024-04-30T21:11:24.901Z,95348.66
2024-04-30T21:13:51.624Z,95345.38
2024-04-30T21:16:18.299Z,95339.47
2024-04-30T21:18:45.575Z,95340.56
2024-04-30T21:21:12.302Z,95339.94
2024-04-30T21:23:42.946Z,95337.28
2024-04-30T21:26:10.245Z,95332.91
2024-04-30T21:28:37.941Z,95330.56
2024-04-30T21:31:05.029Z,95334.00
2024-04-30T21:33:32.053Z,95333.09
2024-04-30T21:35:59.369Z,95333.09
2024-04-30T21:38:26.005Z,95328.56
2024-04-30T21:40:53.196Z,95325.88
2024-04-30T21:43:19.872Z,95323.06
2024-04-30T21:45:46.543Z,95330.25
2024-04-30T21:48:13.307Z,95327.44
2024-04-30T21:50:40.051Z,95322.63
2024-04-30T21:53:06.654Z,95328.88
2024-04-30T21:55:33.243Z,95330.09
2024-04-30T21:57:59.918Z,95322.00
2024-04-30T22:00:26.645Z,95325.13
2024-04-30T22:02:57.710Z,95332.47
2024-04-30T22:05:29.153Z,95325.59
2024-04-30T22:07:55.845Z,95326.53
2024-04-30T22:10:24.078Z,95324.81
2024-04-30T22:12:50.791Z,95323.06
2024-04-30T22:15:19.119Z,95315.13
2024-04-30T22:17:46.220Z,95313.41
2024-04-30T22:20:13.130Z,95310.59
2024-04-30T22:22:40.249Z,95300.63
2024-04-30T22:25:08.149Z,95296.13
2024-04-30T22:27:35.053Z,95293.13
2024-04-30T22:30:09.150Z,95292.22
2024-04-30T22:32:44.705Z,95294.41
2024-04-30T22:35:11.680Z,95289.25
2024-04-30T22:37:38.346Z,95299.41
2024-04-30T22:40:05.711Z,95298.13
2024-04-30T22:42:32.813Z,95298.44
2024-04-30T22:44:59.882Z,95290.94
2024-04-30T22:47:26.605Z,95280.97
2024-04-30T22:49:53.310Z,95281.75
2024-04-30T22:52:19.985Z,95281.75
2024-04-30T22:54:50.639Z,95281.91
2024-04-30T22:57:17.675Z,95279.25
2024-04-30T22:59:44.312Z,95282.66
2024-04-30T23:02:11.143Z,95282.81
2024-04-30T23:04:37.982Z,95282.97
2024-04-30T23:07:05.086Z,95277.84
2024-04-30T23:09:31.903Z,95287.34
2024-04-30T23:11:58.594Z,95288.16
2024-04-30T23:14:25.202Z,95290.34
2024-04-30T23:16:51.843Z,95293.88
2024-04-30T23:19:18.634Z,95285.94
2024-04-30T23:21:45.646Z,95275.44
2024-04-30T23:24:12.427Z,95284.00
2024-04-30T23:26:39.076Z,95269.94
2024-04-30T23:29:05.707Z,95275.28
2024-04-30T23:31:32.380Z,95274.50
2024-04-30T23:33:59.154Z,95271.06
2024-04-30T23:36:25.993Z,95274.28
2024-04-30T23:38:52.673Z,95274.28
2024-04-30T23:41:19.423Z,95277.88
2024-04-30T23:43:46.036Z,95268.53
2024-04-30T23:46:12.987Z,95271.91
2024-04-30T23:48:39.691Z,95265.97
2024-04-30T23:51:13.147Z,95286.38
2024-04-30T23:53:43.837Z,95281.25
2024-04-30T23:56:12.166Z,95285.69
2024-04-30T23:58:39.137Z,95281.78
